createdAt,value
2018-09-26T00:00:39.856Z,5.10
2018-09-26T00:03:14.520Z,6.03
2018-09-26T00:05:43.664Z,5.37
2018-09-26T00:08:12.806Z,5.53
2018-09-26T00:10:42.231Z,4.97
2018-09-26T00:13:11.357Z,5.03
2018-09-26T00:15:40.487Z,4.80
2018-09-26T00:18:10.218Z,5.43
2018-09-26T00:20:41.101Z,4.95
2018-09-26T00:23:10.209Z,5.30
2018-09-26T00:25:39.629Z,5.27
2018-09-26T00:28:09.470Z,4.87
2018-09-26T00:30:38.662Z,5.17
2018-09-26T00:33:08.292Z,4.53
2018-09-26T00:35:37.408Z,5.27
2018-09-26T00:38:06.626Z,5.10
2018-09-26T00:40:36.092Z,5.15
2018-09-26T00:43:05.226Z,4.90
2018-09-26T00:45:34.584Z,4.90
2018-09-26T00:48:04.077Z,5.93
2018-09-26T00:50:33.225Z,5.10
2018-09-26T00:53:02.374Z,5.00
2018-09-26T00:55:31.796Z,5.55
2018-09-26T00:58:00.961Z,5.27
2018-09-26T01:00:30.131Z,6.37
2018-09-26T01:02:59.595Z,5.87
2018-09-26T01:05:28.704Z,6.50
2018-09-26T01:07:57.819Z,5.40
2018-09-26T01:10:27.269Z,5.17
2018-09-26T01:12:56.693Z,5.73
2018-09-26T01:15:25.836Z,5.70
2018-09-26T01:17:56.016Z,5.30
2018-09-26T01:20:25.148Z,5.70
2018-09-26T01:22:54.437Z,5.47
2018-09-26T01:25:23.611Z,6.25
2018-09-26T01:27:52.868Z,6.67
2018-09-26T01:30:22.442Z,6.20
2018-09-26T01:32:51.573Z,6.47
2018-09-26T01:35:20.743Z,6.73
2018-09-26T01:37:49.873Z,6.22
2018-09-26T01:40:19.052Z,7.63
2018-09-26T01:42:48.204Z,6.80
2018-09-26T01:45:17.335Z,6.05
2018-09-26T01:47:46.790Z,6.10
2018-09-26T01:50:15.911Z,6.00
2018-09-26T01:52:45.069Z,6.10
2018-09-26T01:55:14.438Z,6.87
2018-09-26T01:57:43.594Z,6.67
2018-09-26T02:00:12.857Z,6.58
2018-09-26T02:02:42.041Z,7.65
2018-09-26T02:05:11.282Z,7.87
2018-09-26T02:07:40.479Z,6.97
2018-09-26T02:10:09.942Z,6.03
2018-09-26T02:12:39.071Z,6.75
2018-09-26T02:15:08.868Z,6.15
2018-09-26T02:17:38.069Z,6.80
2018-09-26T02:20:07.412Z,6.42
2018-09-26T02:22:36.831Z,6.85
2018-09-26T02:25:06.188Z,8.40
2018-09-26T02:27:36.717Z,9.10
2018-09-26T02:30:05.903Z,7.37
2018-09-26T02:32:35.086Z,7.15
2018-09-26T02:35:04.258Z,7.20
2018-09-26T02:37:34.001Z,7.33
2018-09-26T02:40:03.153Z,7.25
2018-09-26T02:42:32.301Z,6.65
2018-09-26T02:45:01.427Z,6.20
2018-09-26T02:47:30.598Z,7.08
2018-09-26T02:49:59.739Z,6.50
2018-09-26T02:52:28.885Z,6.72
2018-09-26T02:54:58.070Z,7.00
2018-09-26T02:57:27.208Z,6.37
2018-09-26T02:59:56.344Z,7.75
2018-09-26T03:02:25.504Z,8.80
2018-09-26T03:04:55.095Z,7.78
2018-09-26T03:07:24.213Z,6.90
2018-09-26T03:09:53.368Z,7.65
2018-09-26T03:12:22.600Z,7.35
2018-09-26T03:14:52.005Z,6.60
2018-09-26T03:17:21.265Z,6.75
2018-09-26T03:19:50.425Z,5.95
2018-09-26T03:22:19.598Z,8.18
2018-09-26T03:24:48.735Z,7.30
2018-09-26T03:27:17.908Z,6.55
2018-09-26T03:29:47.349Z,7.15
2018-09-26T03:32:16.501Z,6.33
2018-09-26T03:34:45.648Z,6.95
2018-09-26T03:37:14.873Z,6.37
2018-09-26T03:39:44.007Z,6.80
2018-09-26T03:42:13.176Z,7.12
2018-09-26T03:44:42.293Z,7.05
2018-09-26T03:47:11.589Z,7.53
2018-09-26T03:49:40.718Z,7.53
2018-09-26T03:52:10.186Z,7.10
2018-09-26T03:54:39.462Z,7.37
2018-09-26T03:57:08.770Z,8.78
2018-09-26T03:59:37.944Z,6.85
2018-09-26T04:02:07.138Z,7.22
2018-09-26T04:04:36.425Z,6.95
2018-09-26T04:07:05.888Z,7.33
2018-09-26T04:09:35.086Z,7.50
2018-09-26T04:12:04.855Z,7.37
2018-09-26T04:14:33.961Z,7.47
2018-09-26T04:17:03.156Z,7.00
2018-09-26T04:19:32.298Z,7.03
2018-09-26T04:22:01.441Z,6.92
2018-09-26T04:24:30.637Z,9.15
2018-09-26T04:26:59.982Z,16.05
2018-09-26T04:29:29.078Z,25.20
2018-09-26T04:31:59.301Z,22.95
2018-09-26T04:34:28.425Z,26.57
2018-09-26T04:36:57.580Z,25.20
2018-09-26T04:39:26.998Z,20.82
2018-09-26T04:41:56.188Z,17.87
2018-09-26T04:44:25.361Z,17.35
2018-09-26T04:46:54.721Z,13.15
2018-09-26T04:49:23.842Z,11.12
2018-09-26T04:51:53.012Z,7.28
2018-09-26T04:54:22.490Z,8.05
2018-09-26T04:56:51.981Z,9.53
2018-09-26T04:59:21.138Z,7.42
2018-09-26T05:01:50.590Z,8.25
2018-09-26T05:04:19.863Z,7.90
2018-09-26T05:06:49.243Z,8.05
2018-09-26T05:09:18.703Z,8.20
2018-09-26T05:11:48.168Z,8.33
2018-09-26T05:14:17.335Z,9.10
2018-09-26T05:16:46.722Z,9.05
2018-09-26T05:19:15.854Z,8.20
2018-09-26T05:21:45.017Z,7.25
2018-09-26T05:24:14.517Z,6.67
2018-09-26T05:26:43.667Z,7.12
2018-09-26T05:29:12.839Z,7.10
2018-09-26T05:31:42.338Z,7.85
2018-09-26T05:34:11.473Z,7.95
2018-09-26T05:36:40.605Z,8.20
2018-09-26T05:39:11.650Z,8.78
2018-09-26T05:41:40.816Z,9.05
2018-09-26T05:44:09.964Z,8.50
2018-09-26T05:46:39.537Z,7.62
2018-09-26T05:49:09.077Z,7.28
2018-09-26T05:51:38.207Z,7.00
2018-09-26T05:54:07.750Z,6.85
2018-09-26T05:56:36.907Z,7.25
2018-09-26T05:59:06.202Z,6.87
2018-09-26T06:01:35.613Z,8.28
2018-09-26T06:04:05.126Z,9.38
2018-09-26T06:06:34.294Z,8.10
2018-09-26T06:09:04.024Z,8.43
2018-09-26T06:11:33.216Z,6.50
2018-09-26T06:14:03.018Z,6.33
2018-09-26T06:16:32.528Z,6.73
2018-09-26T06:19:01.775Z,6.10
2018-09-26T06:21:30.881Z,5.10
2018-09-26T06:24:00.653Z,5.60
2018-09-26T06:26:29.819Z,6.07
2018-09-26T06:28:59.028Z,5.30
2018-09-26T06:31:28.462Z,6.47
2018-09-26T06:33:57.615Z,5.77
2018-09-26T06:36:27.025Z,6.10
2018-09-26T06:38:56.701Z,6.27
2018-09-26T06:41:25.843Z,5.40
2018-09-26T06:43:54.999Z,5.07
2018-09-26T06:46:24.478Z,5.23
2018-09-26T06:48:53.679Z,4.67
2018-09-26T06:51:22.839Z,5.57
2018-09-26T06:53:52.311Z,5.40
2018-09-26T06:56:21.450Z,5.37
2018-09-26T06:58:50.613Z,5.70
2018-09-26T07:01:20.037Z,5.20
2018-09-26T07:03:49.180Z,5.70
2018-09-26T07:06:18.352Z,5.50
2018-09-26T07:08:48.216Z,5.67
2018-09-26T07:11:17.697Z,5.27
2018-09-26T07:13:46.905Z,4.10
2018-09-26T07:16:16.072Z,5.43
2018-09-26T07:18:45.238Z,4.73
2018-09-26T07:21:14.406Z,4.60
2018-09-26T07:23:43.634Z,3.73
2018-09-26T07:26:12.786Z,4.67
2018-09-26T07:28:41.922Z,4.80
2018-09-26T07:31:11.101Z,3.60
2018-09-26T07:33:40.333Z,4.80
2018-09-26T07:36:09.488Z,3.20
2018-09-26T07:38:39.000Z,3.23
2018-09-26T07:41:08.574Z,4.00
2018-09-26T07:43:37.692Z,4.00
2018-09-26T07:46:07.401Z,2.93
2018-09-26T07:48:36.663Z,3.87
2018-09-26T07:51:06.136Z,3.53
2018-09-26T07:53:35.570Z,3.00
2018-09-26T07:56:04.949Z,3.37
2018-09-26T07:58:34.107Z,3.73
2018-09-26T08:01:03.643Z,3.30
2018-09-26T08:03:32.809Z,2.87
2018-09-26T08:06:02.029Z,2.87
2018-09-26T08:08:32.342Z,3.53
2018-09-26T08:11:02.557Z,3.07
2018-09-26T08:13:31.777Z,2.47
2018-09-26T08:16:02.156Z,2.83
2018-09-26T08:18:31.997Z,4.20
2018-09-26T08:21:01.141Z,3.30
2018-09-26T08:23:30.903Z,2.77
2018-09-26T08:26:00.415Z,2.27
2018-09-26T08:28:29.598Z,2.30
2018-09-26T08:30:58.955Z,2.70
2018-09-26T08:33:28.165Z,2.70
2018-09-26T08:35:57.965Z,2.60
2018-09-26T08:38:27.225Z,2.37
2018-09-26T08:40:56.452Z,2.33
2018-09-26T08:43:25.777Z,2.10
2018-09-26T08:45:55.150Z,2.07
2018-09-26T08:48:24.296Z,2.53
2018-09-26T08:50:53.441Z,2.50
2018-09-26T08:53:24.282Z,1.90
2018-09-26T08:55:53.428Z,2.00
2018-09-26T08:58:22.602Z,2.43
2018-09-26T09:00:54.053Z,2.27
2018-09-26T09:03:23.241Z,1.80
2018-09-26T09:05:52.885Z,1.80
2018-09-26T09:08:22.050Z,2.47
2018-09-26T09:10:51.504Z,2.17
2018-09-26T09:13:20.705Z,1.90
2018-09-26T09:15:49.861Z,2.30
2018-09-26T09:18:19.058Z,1.80
2018-09-26T09:20:48.269Z,2.13
2018-09-26T09:23:17.831Z,1.93
2018-09-26T09:25:46.959Z,1.80
2018-09-26T09:28:16.436Z,1.63
2018-09-26T09:30:45.676Z,2.07
2018-09-26T09:33:15.184Z,1.70
2018-09-26T09:35:44.400Z,2.10
2018-09-26T09:38:13.726Z,2.10
2018-09-26T09:40:42.860Z,2.23
2018-09-26T09:43:12.474Z,1.87
2018-09-26T09:45:41.788Z,1.50
2018-09-26T09:48:11.487Z,1.67
2018-09-26T09:50:40.699Z,1.63
2018-09-26T09:53:10.702Z,1.30
2018-09-26T09:55:40.102Z,2.53
2018-09-26T09:58:09.305Z,1.53
2018-09-26T10:00:43.766Z,1.80
2018-09-26T10:03:12.997Z,1.60
2018-09-26T10:05:42.136Z,1.57
2018-09-26T10:08:11.323Z,2.03
2018-09-26T10:10:41.006Z,1.60
2018-09-26T10:13:10.126Z,1.70
2018-09-26T10:15:39.635Z,1.70
2018-09-26T10:18:09.201Z,1.80
2018-09-26T10:20:38.391Z,2.47
2018-09-26T10:23:07.751Z,1.33
2018-09-26T10:25:37.078Z,1.80
2018-09-26T10:28:06.669Z,1.47
2018-09-26T10:30:35.879Z,1.70
2018-09-26T10:33:05.082Z,1.77
2018-09-26T10:35:34.320Z,1.80
2018-09-26T10:38:03.532Z,1.50
2018-09-26T10:40:32.702Z,1.70
2018-09-26T10:43:01.960Z,1.93
2018-09-26T10:45:31.385Z,1.77
2018-09-26T10:48:00.890Z,1.67
2018-09-26T10:50:30.043Z,1.90
2018-09-26T10:52:59.254Z,1.30
2018-09-26T10:55:28.494Z,1.30
2018-09-26T10:57:57.820Z,1.53
2018-09-26T11:00:27.130Z,1.43
2018-09-26T11:02:56.384Z,1.10
2018-09-26T11:05:25.601Z,1.80
2018-09-26T11:07:54.789Z,1.43
2018-09-26T11:10:24.055Z,1.43
2018-09-26T11:12:53.146Z,2.60
2018-09-26T11:15:23.309Z,1.00
2018-09-26T11:17:53.050Z,1.40
2018-09-26T11:20:22.652Z,1.23
2018-09-26T11:22:52.297Z,1.67
2018-09-26T11:25:21.412Z,1.30
2018-09-26T11:27:50.580Z,1.20
2018-09-26T11:30:19.818Z,1.67
2018-09-26T11:32:49.027Z,1.43
2018-09-26T11:35:18.262Z,1.63
2018-09-26T11:37:47.461Z,1.67
2018-09-26T11:40:16.904Z,2.27
2018-09-26T11:42:47.003Z,1.40
2018-09-26T11:45:16.243Z,1.93
2018-09-26T11:47:45.619Z,1.30
2018-09-26T11:50:15.353Z,2.20
2018-09-26T11:52:44.704Z,1.37
2018-09-26T11:55:14.097Z,1.60
2018-09-26T11:57:43.543Z,1.73
2018-09-26T12:00:12.688Z,2.10
2018-09-26T12:02:42.014Z,1.73
2018-09-26T12:05:11.201Z,1.00
2018-09-26T12:07:40.433Z,1.47
2018-09-26T12:10:09.665Z,2.00
2018-09-26T12:12:38.813Z,1.67
2018-09-26T12:15:08.266Z,1.30
2018-09-26T12:17:37.410Z,1.77
2018-09-26T12:20:07.019Z,1.50
2018-09-26T12:22:37.761Z,1.50
2018-09-26T12:25:07.729Z,1.67
2018-09-26T12:27:37.102Z,1.37
2018-09-26T12:30:07.955Z,1.30
2018-09-26T12:32:37.503Z,1.67
2018-09-26T12:35:06.845Z,1.50
2018-09-26T12:37:36.024Z,1.37
2018-09-26T12:40:06.921Z,1.30
2018-09-26T12:42:38.145Z,1.63
2018-09-26T12:45:07.634Z,1.60
2018-09-26T12:47:36.851Z,1.67
2018-09-26T12:50:06.823Z,1.33
2018-09-26T12:52:36.001Z,1.60
2018-09-26T12:55:05.348Z,1.40
2018-09-26T12:57:34.614Z,1.40
2018-09-26T13:00:04.010Z,1.60
2018-09-26T13:02:33.334Z,1.30
2018-09-26T13:05:02.527Z,1.63
2018-09-26T13:07:31.763Z,1.47
2018-09-26T13:10:01.018Z,1.73
2018-09-26T13:12:30.261Z,1.63
2018-09-26T13:14:59.575Z,1.47
2018-09-26T13:17:28.832Z,1.20
2018-09-26T13:19:58.253Z,1.47
2018-09-26T13:22:27.506Z,1.63
2018-09-26T13:24:56.716Z,1.53
2018-09-26T13:27:25.977Z,1.37
2018-09-26T13:29:55.229Z,1.20
2018-09-26T13:32:25.584Z,1.17
2018-09-26T13:34:54.658Z,1.53
2018-09-26T13:37:25.205Z,1.73
2018-09-26T13:39:54.347Z,1.60
2018-09-26T13:42:24.083Z,1.40
2018-09-26T13:44:53.494Z,1.30
2018-09-26T13:47:22.678Z,1.30
2018-09-26T13:49:52.535Z,1.03
2018-09-26T13:52:21.733Z,1.30
2018-09-26T13:54:51.027Z,1.40
2018-09-26T13:57:20.203Z,1.20
2018-09-26T13:59:49.407Z,0.93
2018-09-26T14:02:18.584Z,1.53
2018-09-26T14:04:47.727Z,1.50
2018-09-26T14:07:16.891Z,1.20
2018-09-26T14:09:46.055Z,1.13
2018-09-26T14:12:15.318Z,1.40
2018-09-26T14:14:44.682Z,1.40
2018-09-26T14:17:13.995Z,1.50
2018-09-26T14:19:43.137Z,1.23
2018-09-26T14:22:12.401Z,1.57
2018-09-26T14:24:41.464Z,1.20
2018-09-26T14:27:10.640Z,1.20
2018-09-26T14:29:39.815Z,1.43
2018-09-26T14:32:09.233Z,1.20
2018-09-26T14:34:38.768Z,1.23
2018-09-26T14:37:08.398Z,1.27
2018-09-26T14:39:37.812Z,1.20
2018-09-26T14:42:06.855Z,1.70
2018-09-26T14:44:36.173Z,1.20
2018-09-26T14:47:05.556Z,1.30
2018-09-26T14:49:34.880Z,1.43
2018-09-26T14:52:04.116Z,1.57
2018-09-26T14:54:33.273Z,1.70
2018-09-26T14:57:02.536Z,1.50
2018-09-26T14:59:31.747Z,1.60
2018-09-26T15:02:00.967Z,1.33
2018-09-26T15:04:30.241Z,1.67
2018-09-26T15:06:59.454Z,1.47
2018-09-26T15:09:28.635Z,1.33
2018-09-26T15:11:57.840Z,1.43
2018-09-26T15:14:27.035Z,1.30
2018-09-26T15:16:56.977Z,1.17
2018-09-26T15:19:26.257Z,1.40
2018-09-26T15:21:55.429Z,1.27
2018-09-26T15:24:24.912Z,1.53
2018-09-26T15:26:54.082Z,1.40
2018-09-26T15:29:23.270Z,1.33
2018-09-26T15:31:52.446Z,1.83
2018-09-26T15:34:21.752Z,1.00
2018-09-26T15:36:50.974Z,1.70
2018-09-26T15:39:20.453Z,1.67
2018-09-26T15:41:49.977Z,1.60
2018-09-26T15:44:19.838Z,1.57
2018-09-26T15:46:49.496Z,1.60
2018-09-26T15:49:18.736Z,1.77
2018-09-26T15:51:48.013Z,1.20
2018-09-26T15:54:18.442Z,1.60
2018-09-26T15:56:47.644Z,1.70
2018-09-26T15:59:16.833Z,1.93
2018-09-26T16:01:46.009Z,1.73
2018-09-26T16:04:15.440Z,1.07
2018-09-26T16:06:44.630Z,1.40
2018-09-26T16:09:14.585Z,1.90
2018-09-26T16:11:43.725Z,1.70
2018-09-26T16:14:13.112Z,1.43
2018-09-26T16:16:42.231Z,1.40
2018-09-26T16:19:11.856Z,1.97
2018-09-26T16:21:40.944Z,1.57
2018-09-26T16:24:10.150Z,1.80
2018-09-26T16:26:39.345Z,1.83
2018-09-26T16:29:08.884Z,2.63
2018-09-26T16:31:38.125Z,2.10
2018-09-26T16:34:07.391Z,1.77
2018-09-26T16:36:36.749Z,1.63
2018-09-26T16:39:09.282Z,1.70
2018-09-26T16:41:38.964Z,1.77
2018-09-26T16:44:08.168Z,1.67
2018-09-26T16:46:37.448Z,2.30
2018-09-26T16:49:07.052Z,1.90
2018-09-26T16:51:36.202Z,1.40
2018-09-26T16:54:05.993Z,1.80
2018-09-26T16:56:35.118Z,2.00
2018-09-26T16:59:04.368Z,2.03
2018-09-26T17:01:33.509Z,2.77
2018-09-26T17:04:02.639Z,2.17
2018-09-26T17:06:31.811Z,2.90
2018-09-26T17:09:01.012Z,4.50
2018-09-26T17:11:30.995Z,4.77
2018-09-26T17:14:00.126Z,6.23
2018-09-26T17:16:29.518Z,4.90
2018-09-26T17:18:59.150Z,5.30
2018-09-26T17:21:28.861Z,4.77
2018-09-26T17:23:58.019Z,4.00
2018-09-26T17:26:27.521Z,2.70
2018-09-26T17:28:56.595Z,3.23
2018-09-26T17:31:26.341Z,2.67
2018-09-26T17:33:55.693Z,3.67
2018-09-26T17:36:25.913Z,2.80
2018-09-26T17:38:55.912Z,2.90
2018-09-26T17:41:25.457Z,2.80
2018-09-26T17:43:54.649Z,3.17
2018-09-26T17:46:23.847Z,6.20
2018-09-26T17:48:53.354Z,7.40
2018-09-26T17:51:22.526Z,7.67
2018-09-26T17:53:51.907Z,2.90
2018-09-26T17:56:21.099Z,3.03
2018-09-26T17:58:50.273Z,4.20
2018-09-26T18:01:19.821Z,6.13
2018-09-26T18:03:50.766Z,6.20
2018-09-26T18:06:20.725Z,8.70
2018-09-26T18:08:49.909Z,8.10
2018-09-26T18:11:19.595Z,8.10
2018-09-26T18:13:49.310Z,6.73
2018-09-26T18:16:18.591Z,6.77
2018-09-26T18:18:48.919Z,7.07
2018-09-26T18:21:18.564Z,6.77
2018-09-26T18:23:48.556Z,6.57
2018-09-26T18:26:18.050Z,7.17
2018-09-26T18:28:47.191Z,7.33
2018-09-26T18:31:17.601Z,7.13
2018-09-26T18:33:46.677Z,6.80
2018-09-26T18:36:16.533Z,6.30
2018-09-26T18:38:45.936Z,5.90
2018-09-26T18:41:15.125Z,6.10
2018-09-26T18:43:44.378Z,5.73
2018-09-26T18:46:14.637Z,6.00
2018-09-26T18:48:43.836Z,5.57
2018-09-26T18:51:13.899Z,5.40
2018-09-26T18:53:43.021Z,5.03
2018-09-26T18:56:12.144Z,5.90
2018-09-26T18:58:42.148Z,6.60
2018-09-26T19:01:11.623Z,6.03
2018-09-26T19:03:40.745Z,5.90
2018-09-26T19:06:13.254Z,6.13
2018-09-26T19:08:42.378Z,5.83
2018-09-26T19:11:11.827Z,5.90
2018-09-26T19:13:40.987Z,5.20
2018-09-26T19:16:10.141Z,6.33
2018-09-26T19:18:39.279Z,5.70
2018-09-26T19:21:08.747Z,5.93
2018-09-26T19:23:38.002Z,6.27
2018-09-26T19:26:07.710Z,6.70
2018-09-26T19:28:37.598Z,7.57
2018-09-26T19:31:07.018Z,7.70
2018-09-26T19:33:36.297Z,7.00
2018-09-26T19:36:05.453Z,7.20
2018-09-26T19:38:34.633Z,7.20
2018-09-26T19:41:03.773Z,6.40
2018-09-26T19:43:32.886Z,7.37
2018-09-26T19:46:02.365Z,5.97
2018-09-26T19:48:31.967Z,16.60
2018-09-26T19:51:01.776Z,30.50
2018-09-26T19:53:30.859Z,40.40
2018-09-26T19:56:00.747Z,21.40
2018-09-26T19:58:30.197Z,19.87
2018-09-26T20:00:59.318Z,16.60
2018-09-26T20:03:29.268Z,13.90
2018-09-26T20:05:58.406Z,12.03
2018-09-26T20:08:27.904Z,9.67
2018-09-26T20:10:57.092Z,6.37
2018-09-26T20:13:26.543Z,5.40
2018-09-26T20:15:55.686Z,6.33
2018-09-26T20:18:24.810Z,5.60
2018-09-26T20:20:54.265Z,4.60
2018-09-26T20:23:23.548Z,5.67
2018-09-26T20:25:52.573Z,5.37
2018-09-26T20:28:22.498Z,5.27
2018-09-26T20:30:51.948Z,5.30
2018-09-26T20:33:21.198Z,4.67
2018-09-26T20:35:50.663Z,6.00
2018-09-26T20:38:19.813Z,5.27
2018-09-26T20:40:48.973Z,5.00
2018-09-26T20:43:18.130Z,5.40
2018-09-26T20:45:49.855Z,6.87
2018-09-26T20:48:19.083Z,7.17
2018-09-26T20:50:48.681Z,5.80
2018-09-26T20:53:18.148Z,5.17
2018-09-26T20:55:47.646Z,4.70
2018-09-26T20:58:16.920Z,4.80
2018-09-26T21:00:46.262Z,5.50
2018-09-26T21:03:15.445Z,4.47
2018-09-26T21:05:44.725Z,4.73
2018-09-26T21:08:14.178Z,4.33
2018-09-26T21:10:43.439Z,5.10
2018-09-26T21:13:12.821Z,4.10
2018-09-26T21:15:43.122Z,4.37
2018-09-26T21:18:12.261Z,4.60
2018-09-26T21:20:41.397Z,4.50
2018-09-26T21:23:10.614Z,4.60
2018-09-26T21:25:39.789Z,4.60
2018-09-26T21:28:09.156Z,4.50
2018-09-26T21:30:38.397Z,4.30
2018-09-26T21:33:08.182Z,5.17
2018-09-26T21:35:37.303Z,5.10
2018-09-26T21:38:06.453Z,4.57
2018-09-26T21:40:35.622Z,4.40
2018-09-26T21:43:05.147Z,5.30
2018-09-26T21:45:34.323Z,4.67
2018-09-26T21:48:03.486Z,4.60
2018-09-26T21:50:34.237Z,4.47
2018-09-26T21:53:04.282Z,4.97
2018-09-26T21:55:33.418Z,4.97
2018-09-26T21:58:03.344Z,4.90
2018-09-26T22:00:32.758Z,5.13
2018-09-26T22:03:03.186Z,5.37
2018-09-26T22:05:32.352Z,4.80
2018-09-26T22:08:01.745Z,5.70
2018-09-26T22:10:30.881Z,4.80
2018-09-26T22:13:00.081Z,5.20
2018-09-26T22:15:29.265Z,4.50
2018-09-26T22:17:58.452Z,4.87
2018-09-26T22:20:27.655Z,4.90
2018-09-26T22:22:57.087Z,4.67
2018-09-26T22:25:26.237Z,4.40
2018-09-26T22:27:55.389Z,4.80
2018-09-26T22:30:24.590Z,5.40
2018-09-26T22:32:53.723Z,5.47
2018-09-26T22:35:30.969Z,5.70
2018-09-26T22:38:11.420Z,5.53
2018-09-26T22:40:41.025Z,5.00
2018-09-26T22:43:10.170Z,5.37
2018-09-26T22:45:39.553Z,6.97
2018-09-26T22:48:08.710Z,6.43
2018-09-26T22:50:38.381Z,5.83
2018-09-26T22:53:08.598Z,5.70
2018-09-26T22:55:38.380Z,5.60
2018-09-26T22:58:07.539Z,5.50
2018-09-26T23:00:36.657Z,6.27
2018-09-26T23:03:06.028Z,5.20
2018-09-26T23:05:35.222Z,6.37
2018-09-26T23:08:04.877Z,6.90
2018-09-26T23:10:34.039Z,6.73
2018-09-26T23:13:07.066Z,5.47
2018-09-26T23:15:36.430Z,5.10
2018-09-26T23:18:05.596Z,6.20
2018-09-26T23:20:34.943Z,6.30
2018-09-26T23:23:04.061Z,6.40
2018-09-26T23:25:33.245Z,6.30
2018-09-26T23:28:02.410Z,6.63
2018-09-26T23:30:31.558Z,6.80
2018-09-26T23:33:00.702Z,6.37
2018-09-26T23:35:29.878Z,7.40
2018-09-26T23:38:00.018Z,6.77
2018-09-26T23:40:29.514Z,6.60
2018-09-26T23:42:58.699Z,6.77
2018-09-26T23:45:27.871Z,7.73
2018-09-26T23:47:57.485Z,6.90
2018-09-26T23:50:26.801Z,7.00
2018-09-26T23:52:56.002Z,6.80
2018-09-26T23:55:25.490Z,6.63
2018-09-26T23:57:54.608Z,7.20
